KRYY/RYY METAR and TAF weather

Enter ICAO airport designator
Station Type Date Time Source
KRYY METAR 2024/04/18 07:12 UTC NOAA

KRYY 180712Z AUTO 00000KT 3SM BR CLR 15/14 A3011 RMK AO2 $


Station Type Date Time Source
KRYY Decoded METAR 2024/04/18 07:12 UTC NOAA

Marietta, Cobb County-McCollum Field Airport, GA, United States (KRYY) 34-00-47N 084-35-55W
Apr 18, 2024 - 03:12 AM EDT / 2024.04.18 0712 UTC
Wind: Calm:0
Visibility: 3 mile(s):0
Sky conditions: clear
Weather: mist
Temperature: 59 F (15 C)
Dew Point: 57 F (14 C)
Relative Humidity: 93%
Pressure (altimeter): 30.11 in. Hg (1019 hPa)
ob: KRYY 180712Z AUTO 00000KT 3SM BR CLR 15/14 A3011 RMK AO2
cycle: 7

Station Type Date Time Source
KRYY TAF 2024/04/18 06:30 UTC NOAA